sensor_id;sensor_type;location;lat;lon;timestamp;P1;durP1;ratioP1;P2;durP2;ratioP2
69783;SDS011;57054;51.978;4.498;2023-10-31T00:01:03;1.67;;;0.82;;
69783;SDS011;57054;51.978;4.498;2023-10-31T00:03:29;2.35;;;0.93;;
69783;SDS011;57054;51.978;4.498;2023-10-31T00:05:54;2.33;;;0.90;;
69783;SDS011;57054;51.978;4.498;2023-10-31T00:08:19;2.45;;;0.85;;
69783;SDS011;57054;51.978;4.498;2023-10-31T00:10:45;2.83;;;0.88;;
69783;SDS011;57054;51.978;4.498;2023-10-31T00:13:11;2.42;;;1.05;;
69783;SDS011;57054;51.978;4.498;2023-10-31T00:15:36;3.00;;;0.90;;
69783;SDS011;57054;51.978;4.498;2023-10-31T00:18:02;2.25;;;0.85;;
69783;SDS011;57054;51.978;4.498;2023-10-31T00:20:27;2.50;;;1.10;;
69783;SDS011;57054;51.978;4.498;2023-10-31T00:22:53;2.42;;;1.23;;
69783;SDS011;57054;51.978;4.498;2023-10-31T00:25:18;3.00;;;1.50;;
69783;SDS011;57054;51.978;4.498;2023-10-31T00:27:44;2.67;;;1.50;;
69783;SDS011;57054;51.978;4.498;2023-10-31T00:30:10;4.40;;;1.67;;
69783;SDS011;57054;51.978;4.498;2023-10-31T00:32:35;5.85;;;2.33;;
69783;SDS011;57054;51.978;4.498;2023-10-31T00:35:01;2.88;;;2.05;;
69783;SDS011;57054;51.978;4.498;2023-10-31T00:37:26;3.95;;;1.92;;
69783;SDS011;57054;51.978;4.498;2023-10-31T00:39:52;3.38;;;2.03;;
69783;SDS011;57054;51.978;4.498;2023-10-31T00:42:17;2.00;;;1.90;;
69783;SDS011;57054;51.978;4.498;2023-10-31T00:44:42;2.60;;;1.90;;
69783;SDS011;57054;51.978;4.498;2023-10-31T00:47:08;2.33;;;1.55;;
69783;SDS011;57054;51.978;4.498;2023-10-31T00:49:33;4.53;;;2.22;;
69783;SDS011;57054;51.978;4.498;2023-10-31T00:51:59;3.17;;;1.95;;
69783;SDS011;57054;51.978;4.498;2023-10-31T00:54:24;2.65;;;2.00;;
69783;SDS011;57054;51.978;4.498;2023-10-31T00:56:49;2.05;;;1.75;;
69783;SDS011;57054;51.978;4.498;2023-10-31T00:59:14;2.75;;;2.45;;
69783;SDS011;57054;51.978;4.498;2023-10-31T01:01:40;8.38;;;3.50;;
69783;SDS011;57054;51.978;4.498;2023-10-31T01:04:05;5.57;;;2.58;;
69783;SDS011;57054;51.978;4.498;2023-10-31T01:06:31;4.18;;;3.00;;
69783;SDS011;57054;51.978;4.498;2023-10-31T01:08:56;5.55;;;2.90;;
69783;SDS011;57054;51.978;4.498;2023-10-31T01:11:21;2.90;;;2.70;;
69783;SDS011;57054;51.978;4.498;2023-10-31T01:13:47;4.90;;;3.30;;
69783;SDS011;57054;51.978;4.498;2023-10-31T01:16:12;3.83;;;2.53;;
69783;SDS011;57054;51.978;4.498;2023-10-31T01:18:38;3.72;;;2.53;;
69783;SDS011;57054;51.978;4.498;2023-10-31T01:21:03;8.18;;;3.83;;
69783;SDS011;57054;51.978;4.498;2023-10-31T01:23:28;5.55;;;3.47;;
69783;SDS011;57054;51.978;4.498;2023-10-31T01:25:54;3.35;;;2.92;;
69783;SDS011;57054;51.978;4.498;2023-10-31T01:28:19;3.13;;;2.67;;
69783;SDS011;57054;51.978;4.498;2023-10-31T01:30:44;5.65;;;3.45;;
69783;SDS011;57054;51.978;4.498;2023-10-31T01:33:10;3.42;;;3.13;;
69783;SDS011;57054;51.978;4.498;2023-10-31T01:35:35;6.35;;;2.70;;
69783;SDS011;57054;51.978;4.498;2023-10-31T01:38:00;3.47;;;2.85;;
69783;SDS011;57054;51.978;4.498;2023-10-31T01:40:26;3.10;;;2.90;;
69783;SDS011;57054;51.978;4.498;2023-10-31T01:42:51;2.90;;;2.70;;
69783;SDS011;57054;51.978;4.498;2023-10-31T01:45:16;2.53;;;2.33;;
69783;SDS011;57054;51.978;4.498;2023-10-31T01:47:42;2.70;;;2.50;;
69783;SDS011;57054;51.978;4.498;2023-10-31T01:52:36;1.90;;;1.70;;
69783;SDS011;57054;51.978;4.498;2023-10-31T01:55:02;2.50;;;1.77;;
69783;SDS011;57054;51.978;4.498;2023-10-31T01:57:29;1.40;;;1.33;;
69783;SDS011;57054;51.978;4.498;2023-10-31T01:59:55;1.90;;;1.80;;
69783;SDS011;57054;51.978;4.498;2023-10-31T02:05:23;2.63;;;2.42;;
69783;SDS011;57054;51.978;4.498;2023-10-31T02:07:49;4.22;;;2.88;;
69783;SDS011;57054;51.978;4.498;2023-10-31T02:10:14;3.47;;;3.08;;
69783;SDS011;57054;51.978;4.498;2023-10-31T02:12:40;4.05;;;3.58;;
69783;SDS011;57054;51.978;4.498;2023-10-31T02:15:05;3.45;;;3.17;;
69783;SDS011;57054;51.978;4.498;2023-10-31T02:17:31;3.42;;;3.20;;
69783;SDS011;57054;51.978;4.498;2023-10-31T02:19:56;2.88;;;2.50;;
69783;SDS011;57054;51.978;4.498;2023-10-31T02:22:22;2.22;;;2.03;;
69783;SDS011;57054;51.978;4.498;2023-10-31T02:24:48;1.80;;;1.70;;
69783;SDS011;57054;51.978;4.498;2023-10-31T02:27:13;1.90;;;1.70;;
69783;SDS011;57054;51.978;4.498;2023-10-31T02:29:39;1.70;;;1.30;;
69783;SDS011;57054;51.978;4.498;2023-10-31T02:32:05;3.30;;;1.15;;
69783;SDS011;57054;51.978;4.498;2023-10-31T02:34:30;1.50;;;1.00;;
69783;SDS011;57054;51.978;4.498;2023-10-31T02:36:56;2.45;;;1.45;;
69783;SDS011;57054;51.978;4.498;2023-10-31T02:39:21;1.63;;;1.15;;
69783;SDS011;57054;51.978;4.498;2023-10-31T02:41:46;3.13;;;1.10;;
69783;SDS011;57054;51.978;4.498;2023-10-31T02:44:14;1.00;;;0.90;;
69783;SDS011;57054;51.978;4.498;2023-10-31T02:46:40;1.73;;;1.00;;
69783;SDS011;57054;51.978;4.498;2023-10-31T02:49:06;0.80;;;0.80;;
69783;SDS011;57054;51.978;4.498;2023-10-31T02:51:31;0.90;;;0.90;;
69783;SDS011;57054;51.978;4.498;2023-10-31T02:53:56;4.78;;;1.58;;
69783;SDS011;57054;51.978;4.498;2023-10-31T02:56:22;1.90;;;0.77;;
69783;SDS011;57054;51.978;4.498;2023-10-31T02:58:48;2.15;;;0.90;;
69783;SDS011;57054;51.978;4.498;2023-10-31T03:01:13;1.30;;;0.80;;
69783;SDS011;57054;51.978;4.498;2023-10-31T03:03:39;0.95;;;0.82;;
69783;SDS011;57054;51.978;4.498;2023-10-31T03:06:04;0.82;;;0.80;;
69783;SDS011;57054;51.978;4.498;2023-10-31T03:08:30;2.83;;;1.10;;
69783;SDS011;57054;51.978;4.498;2023-10-31T03:10:56;2.60;;;1.02;;
69783;SDS011;57054;51.978;4.498;2023-10-31T03:13:21;1.95;;;0.95;;
69783;SDS011;57054;51.978;4.498;2023-10-31T03:15:46;1.98;;;0.90;;
69783;SDS011;57054;51.978;4.498;2023-10-31T03:18:12;2.25;;;0.93;;
69783;SDS011;57054;51.978;4.498;2023-10-31T03:20:39;1.20;;;0.75;;
69783;SDS011;57054;51.978;4.498;2023-10-31T03:23:05;0.95;;;0.75;;
69783;SDS011;57054;51.978;4.498;2023-10-31T03:25:30;1.40;;;0.60;;
69783;SDS011;57054;51.978;4.498;2023-10-31T03:27:55;1.55;;;0.75;;
69783;SDS011;57054;51.978;4.498;2023-10-31T03:30:21;0.63;;;0.57;;
69783;SDS011;57054;51.978;4.498;2023-10-31T03:32:46;0.80;;;0.47;;
69783;SDS011;57054;51.978;4.498;2023-10-31T03:35:11;0.75;;;0.43;;
69783;SDS011;57054;51.978;4.498;2023-10-31T03:37:37;1.83;;;0.60;;
69783;SDS011;57054;51.978;4.498;2023-10-31T03:40:06;0.52;;;0.50;;
69783;SDS011;57054;51.978;4.498;2023-10-31T03:42:35;3.95;;;0.70;;
69783;SDS011;57054;51.978;4.498;2023-10-31T03:45:00;1.20;;;0.60;;
69783;SDS011;57054;51.978;4.498;2023-10-31T03:47:26;2.25;;;0.70;;
69783;SDS011;57054;51.978;4.498;2023-10-31T03:49:51;1.50;;;0.70;;
69783;SDS011;57054;51.978;4.498;2023-10-31T03:52:16;2.40;;;0.55;;
69783;SDS011;57054;51.978;4.498;2023-10-31T03:54:42;1.60;;;0.40;;
69783;SDS011;57054;51.978;4.498;2023-10-31T03:57:08;0.40;;;0.40;;
69783;SDS011;57054;51.978;4.498;2023-10-31T03:59:33;0.38;;;0.30;;
69783;SDS011;57054;51.978;4.498;2023-10-31T04:01:58;0.30;;;0.30;;
69783;SDS011;57054;51.978;4.498;2023-10-31T04:04:24;1.55;;;0.45;;
69783;SDS011;57054;51.978;4.498;2023-10-31T04:06:49;0.65;;;0.30;;
69783;SDS011;57054;51.978;4.498;2023-10-31T04:09:14;0.52;;;0.40;;
69783;SDS011;57054;51.978;4.498;2023-10-31T04:11:40;1.10;;;0.50;;
69783;SDS011;57054;51.978;4.498;2023-10-31T04:14:06;0.43;;;0.30;;
69783;SDS011;57054;51.978;4.498;2023-10-31T04:16:31;0.28;;;0.28;;
69783;SDS011;57054;51.978;4.498;2023-10-31T04:18:57;0.70;;;0.40;;
69783;SDS011;57054;51.978;4.498;2023-10-31T04:21:22;1.63;;;0.40;;
69783;SDS011;57054;51.978;4.498;2023-10-31T04:23:47;0.38;;;0.20;;
69783;SDS011;57054;51.978;4.498;2023-10-31T04:26:13;0.85;;;0.22;;
69783;SDS011;57054;51.978;4.498;2023-10-31T04:28:38;1.98;;;0.40;;
69783;SDS011;57054;51.978;4.498;2023-10-31T04:31:04;2.35;;;0.45;;
69783;SDS011;57054;51.978;4.498;2023-10-31T04:33:29;1.25;;;0.25;;
69783;SDS011;57054;51.978;4.498;2023-10-31T04:35:55;1.45;;;0.68;;
69783;SDS011;57054;51.978;4.498;2023-10-31T04:38:20;1.92;;;0.65;;
69783;SDS011;57054;51.978;4.498;2023-10-31T04:40:45;0.90;;;0.60;;
69783;SDS011;57054;51.978;4.498;2023-10-31T04:43:11;1.27;;;0.88;;
69783;SDS011;57054;51.978;4.498;2023-10-31T04:45:37;2.65;;;1.20;;
69783;SDS011;57054;51.978;4.498;2023-10-31T04:48:02;2.00;;;1.65;;
69783;SDS011;57054;51.978;4.498;2023-10-31T04:50:27;1.92;;;1.73;;
69783;SDS011;57054;51.978;4.498;2023-10-31T04:52:53;4.80;;;1.90;;
69783;SDS011;57054;51.978;4.498;2023-10-31T04:55:18;2.78;;;1.90;;
69783;SDS011;57054;51.978;4.498;2023-10-31T04:57:43;5.65;;;2.75;;
69783;SDS011;57054;51.978;4.498;2023-10-31T05:00:09;2.75;;;2.42;;
69783;SDS011;57054;51.978;4.498;2023-10-31T05:02:35;3.78;;;2.75;;
69783;SDS011;57054;51.978;4.498;2023-10-31T05:05:00;2.80;;;2.60;;
69783;SDS011;57054;51.978;4.498;2023-10-31T05:07:26;3.20;;;2.67;;
69783;SDS011;57054;51.978;4.498;2023-10-31T05:09:51;3.00;;;2.70;;
69783;SDS011;57054;51.978;4.498;2023-10-31T05:12:16;3.80;;;2.25;;
69783;SDS011;57054;51.978;4.498;2023-10-31T05:14:42;2.83;;;2.28;;
69783;SDS011;57054;51.978;4.498;2023-10-31T05:17:07;3.58;;;2.50;;
69783;SDS011;57054;51.978;4.498;2023-10-31T05:19:32;2.85;;;2.47;;
69783;SDS011;57054;51.978;4.498;2023-10-31T05:21:58;3.50;;;2.70;;
69783;SDS011;57054;51.978;4.498;2023-10-31T05:24:23;2.42;;;2.13;;
69783;SDS011;57054;51.978;4.498;2023-10-31T05:26:48;3.90;;;2.25;;
69783;SDS011;57054;51.978;4.498;2023-10-31T05:29:14;3.03;;;2.58;;
69783;SDS011;57054;51.978;4.498;2023-10-31T05:31:39;2.75;;;2.15;;
69783;SDS011;57054;51.978;4.498;2023-10-31T05:34:06;3.47;;;2.13;;
69783;SDS011;57054;51.978;4.498;2023-10-31T05:36:31;2.72;;;2.20;;
69783;SDS011;57054;51.978;4.498;2023-10-31T05:38:57;2.35;;;2.15;;
69783;SDS011;57054;51.978;4.498;2023-10-31T05:41:22;2.78;;;2.15;;
69783;SDS011;57054;51.978;4.498;2023-10-31T05:43:48;1.83;;;1.63;;
69783;SDS011;57054;51.978;4.498;2023-10-31T05:46:13;4.70;;;1.23;;
69783;SDS011;57054;51.978;4.498;2023-10-31T05:48:40;3.45;;;1.30;;
69783;SDS011;57054;51.978;4.498;2023-10-31T05:53:42;1.02;;;0.95;;
69783;SDS011;57054;51.978;4.498;2023-10-31T05:56:09;2.42;;;1.10;;
69783;SDS011;57054;51.978;4.498;2023-10-31T05:58:36;2.53;;;0.90;;
69783;SDS011;57054;51.978;4.498;2023-10-31T06:01:02;5.00;;;1.38;;
69783;SDS011;57054;51.978;4.498;2023-10-31T06:03:28;1.75;;;0.88;;
69783;SDS011;57054;51.978;4.498;2023-10-31T06:05:53;1.27;;;0.85;;
69783;SDS011;57054;51.978;4.498;2023-10-31T06:08:19;2.50;;;0.88;;
69783;SDS011;57054;51.978;4.498;2023-10-31T06:10:44;1.08;;;0.88;;
69783;SDS011;57054;51.978;4.498;2023-10-31T06:13:09;2.67;;;0.73;;
69783;SDS011;57054;51.978;4.498;2023-10-31T06:15:35;1.55;;;0.95;;
69783;SDS011;57054;51.978;4.498;2023-10-31T06:18:00;2.65;;;1.10;;
69783;SDS011;57054;51.978;4.498;2023-10-31T06:20:26;1.08;;;0.82;;
69783;SDS011;57054;51.978;4.498;2023-10-31T06:22:51;1.35;;;0.90;;
69783;SDS011;57054;51.978;4.498;2023-10-31T06:25:16;1.52;;;0.80;;
69783;SDS011;57054;51.978;4.498;2023-10-31T06:27:42;0.68;;;0.68;;
69783;SDS011;57054;51.978;4.498;2023-10-31T06:30:07;1.10;;;0.68;;
69783;SDS011;57054;51.978;4.498;2023-10-31T06:32:33;1.17;;;0.90;;
69783;SDS011;57054;51.978;4.498;2023-10-31T06:34:58;0.73;;;0.70;;
69783;SDS011;57054;51.978;4.498;2023-10-31T06:37:24;1.13;;;1.00;;
69783;SDS011;57054;51.978;4.498;2023-10-31T06:39:49;0.90;;;0.90;;
69783;SDS011;57054;51.978;4.498;2023-10-31T06:42:14;0.60;;;0.60;;
69783;SDS011;57054;51.978;4.498;2023-10-31T06:44:40;3.03;;;1.00;;
69783;SDS011;57054;51.978;4.498;2023-10-31T06:47:05;1.95;;;1.10;;
69783;SDS011;57054;51.978;4.498;2023-10-31T06:49:30;1.10;;;0.80;;
69783;SDS011;57054;51.978;4.498;2023-10-31T06:51:56;2.35;;;1.10;;
69783;SDS011;57054;51.978;4.498;2023-10-31T06:54:21;0.88;;;0.88;;
69783;SDS011;57054;51.978;4.498;2023-10-31T06:56:47;1.02;;;0.93;;
69783;SDS011;57054;51.978;4.498;2023-10-31T06:59:12;1.58;;;1.20;;
69783;SDS011;57054;51.978;4.498;2023-10-31T07:01:37;1.60;;;0.90;;
69783;SDS011;57054;51.978;4.498;2023-10-31T07:04:03;1.80;;;1.25;;
69783;SDS011;57054;51.978;4.498;2023-10-31T07:06:28;3.33;;;1.40;;
69783;SDS011;57054;51.978;4.498;2023-10-31T07:08:54;2.75;;;1.27;;
69783;SDS011;57054;51.978;4.498;2023-10-31T07:11:19;4.05;;;1.58;;
69783;SDS011;57054;51.978;4.498;2023-10-31T07:13:45;3.28;;;1.45;;
69783;SDS011;57054;51.978;4.498;2023-10-31T07:16:10;1.50;;;1.30;;
69783;SDS011;57054;51.978;4.498;2023-10-31T07:18:35;3.28;;;1.70;;
69783;SDS011;57054;51.978;4.498;2023-10-31T07:21:01;4.85;;;1.65;;
69783;SDS011;57054;51.978;4.498;2023-10-31T07:23:26;1.88;;;1.63;;
69783;SDS011;57054;51.978;4.498;2023-10-31T07:25:52;1.40;;;1.30;;
69783;SDS011;57054;51.978;4.498;2023-10-31T07:28:17;4.88;;;2.30;;
69783;SDS011;57054;51.978;4.498;2023-10-31T07:30:43;3.55;;;1.95;;
69783;SDS011;57054;51.978;4.498;2023-10-31T07:33:08;4.60;;;1.75;;
69783;SDS011;57054;51.978;4.498;2023-10-31T07:35:34;2.75;;;2.10;;
69783;SDS011;57054;51.978;4.498;2023-10-31T07:37:59;6.82;;;2.00;;
69783;SDS011;57054;51.978;4.498;2023-10-31T07:40:24;4.13;;;1.92;;
69783;SDS011;57054;51.978;4.498;2023-10-31T07:42:50;3.28;;;1.90;;
69783;SDS011;57054;51.978;4.498;2023-10-31T07:45:16;4.05;;;2.58;;
69783;SDS011;57054;51.978;4.498;2023-10-31T07:47:41;2.85;;;2.28;;
69783;SDS011;57054;51.978;4.498;2023-10-31T07:50:07;4.47;;;2.30;;
69783;SDS011;57054;51.978;4.498;2023-10-31T07:52:33;3.92;;;2.67;;
69783;SDS011;57054;51.978;4.498;2023-10-31T07:54:58;3.45;;;2.95;;
69783;SDS011;57054;51.978;4.498;2023-10-31T07:57:23;3.80;;;2.97;;
69783;SDS011;57054;51.978;4.498;2023-10-31T07:59:49;3.60;;;2.60;;
69783;SDS011;57054;51.978;4.498;2023-10-31T08:02:14;3.20;;;2.50;;
69783;SDS011;57054;51.978;4.498;2023-10-31T08:04:39;2.75;;;2.55;;
69783;SDS011;57054;51.978;4.498;2023-10-31T08:07:05;3.20;;;2.90;;
69783;SDS011;57054;51.978;4.498;2023-10-31T08:09:30;2.70;;;2.50;;
69783;SDS011;57054;51.978;4.498;2023-10-31T08:11:55;3.08;;;2.88;;
69783;SDS011;57054;51.978;4.498;2023-10-31T08:14:21;3.95;;;3.38;;
69783;SDS011;57054;51.978;4.498;2023-10-31T08:16:47;6.80;;;4.18;;
69783;SDS011;57054;51.978;4.498;2023-10-31T08:19:12;5.47;;;4.55;;
69783;SDS011;57054;51.978;4.498;2023-10-31T08:21:39;5.00;;;4.35;;
69783;SDS011;57054;51.978;4.498;2023-10-31T08:24:04;4.50;;;4.10;;
69783;SDS011;57054;51.978;4.498;2023-10-31T08:26:33;5.55;;;4.93;;
69783;SDS011;57054;51.978;4.498;2023-10-31T08:31:24;6.32;;;5.63;;
69783;SDS011;57054;51.978;4.498;2023-10-31T08:33:50;6.53;;;5.85;;
69783;SDS011;57054;51.978;4.498;2023-10-31T08:36:15;11.68;;;8.13;;
69783;SDS011;57054;51.978;4.498;2023-10-31T08:38:40;12.48;;;7.10;;
69783;SDS011;57054;51.978;4.498;2023-10-31T08:41:06;14.52;;;9.27;;
69783;SDS011;57054;51.978;4.498;2023-10-31T08:43:31;9.73;;;7.70;;
69783;SDS011;57054;51.978;4.498;2023-10-31T08:45:57;10.73;;;8.18;;
69783;SDS011;57054;51.978;4.498;2023-10-31T08:48:22;9.38;;;7.20;;
69783;SDS011;57054;51.978;4.498;2023-10-31T08:50:48;13.65;;;7.65;;
69783;SDS011;57054;51.978;4.498;2023-10-31T08:53:13;9.43;;;7.47;;
69783;SDS011;57054;51.978;4.498;2023-10-31T08:55:39;9.38;;;7.13;;
69783;SDS011;57054;51.978;4.498;2023-10-31T08:58:08;13.50;;;7.35;;
69783;SDS011;57054;51.978;4.498;2023-10-31T09:00:34;10.60;;;6.70;;
69783;SDS011;57054;51.978;4.498;2023-10-31T09:02:59;5.93;;;5.28;;
69783;SDS011;57054;51.978;4.498;2023-10-31T09:05:25;6.70;;;4.90;;
69783;SDS011;57054;51.978;4.498;2023-10-31T09:07:50;7.32;;;4.60;;
69783;SDS011;57054;51.978;4.498;2023-10-31T09:10:16;5.75;;;4.55;;
69783;SDS011;57054;51.978;4.498;2023-10-31T09:12:41;5.80;;;4.57;;
69783;SDS011;57054;51.978;4.498;2023-10-31T09:15:07;4.55;;;4.15;;
69783;SDS011;57054;51.978;4.498;2023-10-31T09:17:32;4.10;;;3.50;;
69783;SDS011;57054;51.978;4.498;2023-10-31T09:19:57;5.75;;;3.65;;
69783;SDS011;57054;51.978;4.498;2023-10-31T09:22:24;4.25;;;3.17;;
69783;SDS011;57054;51.978;4.498;2023-10-31T09:24:49;3.03;;;2.50;;
69783;SDS011;57054;51.978;4.498;2023-10-31T09:27:15;3.85;;;2.60;;
69783;SDS011;57054;51.978;4.498;2023-10-31T09:29:40;2.63;;;2.28;;
69783;SDS011;57054;51.978;4.498;2023-10-31T09:32:06;3.33;;;2.03;;
69783;SDS011;57054;51.978;4.498;2023-10-31T09:34:31;3.80;;;2.33;;
69783;SDS011;57054;51.978;4.498;2023-10-31T09:36:57;5.10;;;2.00;;
69783;SDS011;57054;51.978;4.498;2023-10-31T09:39:23;2.63;;;2.08;;
69783;SDS011;57054;51.978;4.498;2023-10-31T09:41:48;3.67;;;2.30;;
69783;SDS011;57054;51.978;4.498;2023-10-31T09:44:14;2.50;;;2.20;;
69783;SDS011;57054;51.978;4.498;2023-10-31T09:46:39;3.45;;;2.47;;
69783;SDS011;57054;51.978;4.498;2023-10-31T09:49:06;2.80;;;2.25;;
69783;SDS011;57054;51.978;4.498;2023-10-31T09:51:33;3.55;;;2.20;;
69783;SDS011;57054;51.978;4.498;2023-10-31T09:53:58;4.63;;;2.33;;
69783;SDS011;57054;51.978;4.498;2023-10-31T09:56:26;3.40;;;2.70;;
69783;SDS011;57054;51.978;4.498;2023-10-31T09:58:59;4.75;;;2.80;;
69783;SDS011;57054;51.978;4.498;2023-10-31T10:01:28;3.70;;;2.72;;
69783;SDS011;57054;51.978;4.498;2023-10-31T10:03:54;5.45;;;3.53;;
69783;SDS011;57054;51.978;4.498;2023-10-31T10:06:21;10.88;;;5.10;;
69783;SDS011;57054;51.978;4.498;2023-10-31T10:08:48;6.90;;;4.28;;
69783;SDS011;57054;51.978;4.498;2023-10-31T10:11:14;8.93;;;4.15;;
69783;SDS011;57054;51.978;4.498;2023-10-31T10:13:39;11.88;;;4.20;;
69783;SDS011;57054;51.978;4.498;2023-10-31T10:16:05;9.80;;;3.85;;
69783;SDS011;57054;51.978;4.498;2023-10-31T10:18:31;5.88;;;3.63;;
69783;SDS011;57054;51.978;4.498;2023-10-31T10:20:58;9.27;;;4.30;;
69783;SDS011;57054;51.978;4.498;2023-10-31T10:23:25;13.07;;;4.07;;
69783;SDS011;57054;51.978;4.498;2023-10-31T10:25:51;6.22;;;3.28;;
69783;SDS011;57054;51.978;4.498;2023-10-31T10:28:18;8.82;;;3.92;;
69783;SDS011;57054;51.978;4.498;2023-10-31T10:30:47;7.60;;;3.30;;
69783;SDS011;57054;51.978;4.498;2023-10-31T10:33:13;17.52;;;4.70;;
69783;SDS011;57054;51.978;4.498;2023-10-31T10:35:39;8.32;;;3.63;;
69783;SDS011;57054;51.978;4.498;2023-10-31T10:38:14;6.38;;;3.30;;
69783;SDS011;57054;51.978;4.498;2023-10-31T10:40:46;8.38;;;3.90;;
69783;SDS011;57054;51.978;4.498;2023-10-31T10:45:55;6.88;;;4.00;;
69783;SDS011;57054;51.978;4.498;2023-10-31T10:48:22;10.45;;;5.10;;
69783;SDS011;57054;51.978;4.498;2023-10-31T10:53:35;8.82;;;4.30;;
69783;SDS011;57054;51.978;4.498;2023-10-31T10:56:13;8.73;;;4.32;;
69783;SDS011;57054;51.978;4.498;2023-10-31T11:01:09;23.15;;;12.25;;
69783;SDS011;57054;51.978;4.498;2023-10-31T11:03:35;29.50;;;17.70;;
69783;SDS011;57054;51.978;4.498;2023-10-31T11:06:01;34.15;;;19.75;;
69783;SDS011;57054;51.978;4.498;2023-10-31T11:08:28;35.67;;;21.38;;
69783;SDS011;57054;51.978;4.498;2023-10-31T11:10:54;28.85;;;18.88;;
69783;SDS011;57054;51.978;4.498;2023-10-31T11:13:21;37.22;;;22.27;;
69783;SDS011;57054;51.978;4.498;2023-10-31T11:15:47;39.97;;;21.52;;
69783;SDS011;57054;51.978;4.498;2023-10-31T11:18:17;30.63;;;19.98;;
69783;SDS011;57054;51.978;4.498;2023-10-31T11:20:43;36.13;;;21.23;;
69783;SDS011;57054;51.978;4.498;2023-10-31T11:23:08;46.33;;;23.98;;
69783;SDS011;57054;51.978;4.498;2023-10-31T11:25:34;52.33;;;27.23;;
69783;SDS011;57054;51.978;4.498;2023-10-31T11:30:41;46.30;;;23.98;;
69783;SDS011;57054;51.978;4.498;2023-10-31T11:33:11;47.35;;;23.35;;
69783;SDS011;57054;51.978;4.498;2023-10-31T11:35:41;52.63;;;24.05;;
69783;SDS011;57054;51.978;4.498;2023-10-31T11:38:08;49.70;;;23.25;;
69783;SDS011;57054;51.978;4.498;2023-10-31T11:40:36;46.85;;;22.88;;
69783;SDS011;57054;51.978;4.498;2023-10-31T11:43:07;53.28;;;22.48;;
69783;SDS011;57054;51.978;4.498;2023-10-31T11:48:00;40.67;;;20.50;;
69783;SDS011;57054;51.978;4.498;2023-10-31T11:50:25;40.40;;;19.90;;
69783;SDS011;57054;51.978;4.498;2023-10-31T11:53:09;40.88;;;20.15;;
69783;SDS011;57054;51.978;4.498;2023-10-31T11:55:41;33.60;;;18.23;;
69783;SDS011;57054;51.978;4.498;2023-10-31T11:58:18;34.60;;;19.30;;
69783;SDS011;57054;51.978;4.498;2023-10-31T12:00:49;42.33;;;20.25;;
69783;SDS011;57054;51.978;4.498;2023-10-31T12:03:19;36.88;;;19.58;;
69783;SDS011;57054;51.978;4.498;2023-10-31T12:08:25;32.97;;;18.33;;
69783;SDS011;57054;51.978;4.498;2023-10-31T12:10:51;34.72;;;18.95;;
69783;SDS011;57054;51.978;4.498;2023-10-31T12:13:17;33.58;;;18.30;;
69783;SDS011;57054;51.978;4.498;2023-10-31T12:15:52;33.30;;;17.15;;
69783;SDS011;57054;51.978;4.498;2023-10-31T12:18:18;31.45;;;17.80;;
69783;SDS011;57054;51.978;4.498;2023-10-31T12:20:47;34.58;;;19.38;;
69783;SDS011;57054;51.978;4.498;2023-10-31T12:23:17;32.22;;;17.98;;
69783;SDS011;57054;51.978;4.498;2023-10-31T12:25:47;28.33;;;17.00;;
69783;SDS011;57054;51.978;4.498;2023-10-31T12:28:19;30.98;;;17.15;;
69783;SDS011;57054;51.978;4.498;2023-10-31T12:30:46;30.13;;;17.17;;
69783;SDS011;57054;51.978;4.498;2023-10-31T12:33:16;29.23;;;17.88;;
69783;SDS011;57054;51.978;4.498;2023-10-31T12:35:43;28.52;;;16.92;;
69783;SDS011;57054;51.978;4.498;2023-10-31T12:38:13;25.95;;;17.05;;
69783;SDS011;57054;51.978;4.498;2023-10-31T12:40:42;23.63;;;15.88;;
69783;SDS011;57054;51.978;4.498;2023-10-31T12:43:09;21.95;;;15.52;;
69783;SDS011;57054;51.978;4.498;2023-10-31T12:45:35;27.73;;;17.17;;
69783;SDS011;57054;51.978;4.498;2023-10-31T12:48:07;23.27;;;15.50;;
69783;SDS011;57054;51.978;4.498;2023-10-31T12:50:34;21.83;;;16.15;;
69783;SDS011;57054;51.978;4.498;2023-10-31T12:53:02;22.53;;;17.43;;
69783;SDS011;57054;51.978;4.498;2023-10-31T12:55:28;24.42;;;17.00;;
69783;SDS011;57054;51.978;4.498;2023-10-31T12:57:55;44.53;;;18.83;;
69783;SDS011;57054;51.978;4.498;2023-10-31T13:00:21;28.00;;;17.70;;
69783;SDS011;57054;51.978;4.498;2023-10-31T13:02:51;22.77;;;17.48;;
69783;SDS011;57054;51.978;4.498;2023-10-31T13:05:24;27.38;;;18.13;;
69783;SDS011;57054;51.978;4.498;2023-10-31T13:07:51;24.95;;;18.73;;
69783;SDS011;57054;51.978;4.498;2023-10-31T13:10:18;25.70;;;18.67;;
69783;SDS011;57054;51.978;4.498;2023-10-31T13:12:47;25.50;;;18.27;;
69783;SDS011;57054;51.978;4.498;2023-10-31T13:15:14;24.95;;;18.50;;
69783;SDS011;57054;51.978;4.498;2023-10-31T13:17:40;24.88;;;18.83;;
69783;SDS011;57054;51.978;4.498;2023-10-31T13:22:35;29.42;;;19.35;;
69783;SDS011;57054;51.978;4.498;2023-10-31T13:25:02;23.65;;;19.50;;
69783;SDS011;57054;51.978;4.498;2023-10-31T13:27:30;30.37;;;20.73;;
69783;SDS011;57054;51.978;4.498;2023-10-31T13:29:56;27.85;;;19.73;;
69783;SDS011;57054;51.978;4.498;2023-10-31T13:32:21;32.65;;;21.95;;
69783;SDS011;57054;51.978;4.498;2023-10-31T13:34:47;31.10;;;20.15;;
69783;SDS011;57054;51.978;4.498;2023-10-31T13:37:13;38.25;;;26.85;;
69783;SDS011;57054;51.978;4.498;2023-10-31T13:39:38;39.70;;;27.25;;
69783;SDS011;57054;51.978;4.498;2023-10-31T13:42:04;52.30;;;29.33;;
69783;SDS011;57054;51.978;4.498;2023-10-31T13:44:29;41.33;;;28.42;;
69783;SDS011;57054;51.978;4.498;2023-10-31T13:46:55;43.67;;;28.35;;
69783;SDS011;57054;51.978;4.498;2023-10-31T13:49:20;41.80;;;27.77;;
69783;SDS011;57054;51.978;4.498;2023-10-31T13:51:46;43.30;;;27.83;;
69783;SDS011;57054;51.978;4.498;2023-10-31T13:54:12;38.28;;;26.63;;
69783;SDS011;57054;51.978;4.498;2023-10-31T13:56:38;34.88;;;23.77;;
69783;SDS011;57054;51.978;4.498;2023-10-31T13:59:03;33.13;;;23.45;;
69783;SDS011;57054;51.978;4.498;2023-10-31T14:01:28;34.55;;;22.40;;
69783;SDS011;57054;51.978;4.498;2023-10-31T14:03:54;30.33;;;21.98;;
69783;SDS011;57054;51.978;4.498;2023-10-31T14:06:20;35.00;;;21.88;;
69783;SDS011;57054;51.978;4.498;2023-10-31T14:08:45;28.95;;;20.27;;
69783;SDS011;57054;51.978;4.498;2023-10-31T14:11:11;24.67;;;19.23;;
69783;SDS011;57054;51.978;4.498;2023-10-31T14:13:37;28.83;;;19.63;;
69783;SDS011;57054;51.978;4.498;2023-10-31T14:16:02;24.48;;;18.92;;
69783;SDS011;57054;51.978;4.498;2023-10-31T14:18:28;23.73;;;18.65;;
69783;SDS011;57054;51.978;4.498;2023-10-31T14:20:53;31.92;;;18.80;;
69783;SDS011;57054;51.978;4.498;2023-10-31T14:23:18;23.98;;;17.38;;
69783;SDS011;57054;51.978;4.498;2023-10-31T14:25:44;20.38;;;15.60;;
69783;SDS011;57054;51.978;4.498;2023-10-31T14:28:09;22.27;;;16.13;;
69783;SDS011;57054;51.978;4.498;2023-10-31T14:30:35;19.80;;;15.10;;
69783;SDS011;57054;51.978;4.498;2023-10-31T14:33:00;15.95;;;12.93;;
69783;SDS011;57054;51.978;4.498;2023-10-31T14:35:25;16.95;;;13.07;;
69783;SDS011;57054;51.978;4.498;2023-10-31T14:37:51;15.80;;;11.68;;
69783;SDS011;57054;51.978;4.498;2023-10-31T14:40:16;12.52;;;10.02;;
69783;SDS011;57054;51.978;4.498;2023-10-31T14:42:41;12.40;;;9.93;;
69783;SDS011;57054;51.978;4.498;2023-10-31T14:45:07;12.70;;;10.02;;
69783;SDS011;57054;51.978;4.498;2023-10-31T14:47:32;14.23;;;10.30;;
69783;SDS011;57054;51.978;4.498;2023-10-31T14:49:58;12.40;;;9.75;;
69783;SDS011;57054;51.978;4.498;2023-10-31T14:52:23;9.32;;;8.32;;
69783;SDS011;57054;51.978;4.498;2023-10-31T14:54:49;13.65;;;9.52;;
69783;SDS011;57054;51.978;4.498;2023-10-31T14:57:14;10.70;;;9.60;;
69783;SDS011;57054;51.978;4.498;2023-10-31T14:59:40;15.88;;;9.90;;
69783;SDS011;57054;51.978;4.498;2023-10-31T15:02:06;12.10;;;9.80;;